Time;durP1;ratioP1;P1;durP2;ratioP2;P2;SDS_P1;SDS_P2;PMS_P1;PMS_P2;Temp;Humidity;BMP_temperature;BMP_pressure;BME280_temperature;BME280_humidity;BME280_pressure;Samples;Min_cycle;Max_cycle;Signal;HPM_P1;HPM_P2
2021/03/15 00:01:19;;;;;;;0.00;0.00;;;15.50;66.80;;;;;;4195326;28;20055;-60
2021/03/15 00:03:41;;;;;;;0.00;0.00;;;15.50;66.80;;;;;;4195533;28;20049;-60
2021/03/15 00:06:03;;;;;;;0.00;0.00;;;15.50;66.90;;;;;;4195535;28;20059;-59
2021/03/15 00:08:25;;;;;;;0.00;0.00;;;15.40;66.90;;;;;;4195413;28;20139;-60
2021/03/15 00:10:46;;;;;;;0.00;0.00;;;15.40;66.90;;;;;;4195154;28;20060;-59
2021/03/15 00:13:08;;;;;;;0.00;0.00;;;15.40;67.00;;;;;;4195186;28;20052;-60
2021/03/15 00:15:29;;;;;;;0.55;0.55;;;15.40;67.10;;;;;;4195433;28;20049;-60
2021/03/15 00:17:51;;;;;;;0.00;0.00;;;15.40;67.10;;;;;;4195411;28;20076;-59
2021/03/15 00:20:14;;;;;;;0.00;0.00;;;15.40;67.10;;;;;;4195038;28;20053;-59
2021/03/15 00:22:35;;;;;;;0.20;0.20;;;15.40;67.10;;;;;;4194967;28;20052;-60
2021/03/15 00:24:56;;;;;;;0.00;0.00;;;15.30;67.10;;;;;;4195176;28;20109;-59
2021/03/15 00:27:17;;;;;;;0.00;0.00;;;15.40;67.30;;;;;;4195411;28;20055;-59
2021/03/15 00:29:37;;;;;;;0.00;0.00;;;15.30;67.30;;;;;;4193993;28;20056;-59
2021/03/15 00:32:00;;;;;;;0.00;0.00;;;15.30;67.40;;;;;;4195201;28;20056;-59
2021/03/15 00:34:21;;;;;;;0.03;0.03;;;15.30;67.40;;;;;;4194916;28;20048;-60
2021/03/15 00:36:42;;;;;;;0.00;0.00;;;15.30;67.60;;;;;;4195181;28;20521;-59
2021/03/15 00:39:03;;;;;;;0.00;0.00;;;15.30;67.50;;;;;;4194998;28;20135;-59
2021/03/15 00:41:24;;;;;;;;;;;15.30;67.50;;;;;;4195562;28;20052;-59
2021/03/15 00:43:45;;;;;;;0.00;0.00;;;15.30;67.70;;;;;;4195213;28;19978;-59
2021/03/15 00:46:06;;;;;;;0.00;0.00;;;15.20;67.70;;;;;;4194981;28;20147;-60
2021/03/15 00:48:28;;;;;;;0.00;0.00;;;15.20;67.80;;;;;;4195264;28;20059;-60
2021/03/15 00:50:50;;;;;;;0.00;0.00;;;15.20;67.90;;;;;;4195591;28;20517;-59
2021/03/15 00:53:14;;;;;;;0.00;0.00;;;15.20;67.90;;;;;;4196941;28;20513;-59
2021/03/15 00:55:35;;;;;;;0.00;0.00;;;15.20;68.00;;;;;;4198247;28;20123;-59
2021/03/15 00:57:56;;;;;;;0.00;0.00;;;15.20;68.10;;;;;;4197698;28;20052;-59
2021/03/15 01:00:25;;;;;;;0.28;0.28;;;15.10;68.10;;;;;;4197177;28;20110;-60
2021/03/15 01:03:18;;;;;;;0.00;0.00;;;15.10;68.10;;;;;;4180389;28;20073;-59
2021/03/15 01:05:48;;;;;;;0.00;0.00;;;15.10;68.20;;;;;;4197239;28;20052;-60
2021/03/15 01:08:26;;;;;;;0.00;0.00;;;15.10;68.40;;;;;;4196580;28;20052;-59
2021/03/15 01:10:48;;;;;;;0.00;0.00;;;15.10;68.40;;;;;;4196541;28;20075;-59
2021/03/15 01:13:10;;;;;;;0.00;0.00;;;15.10;68.50;;;;;;4197796;28;20139;-60
2021/03/15 01:15:32;;;;;;;0.00;0.00;;;15.10;68.60;;;;;;4197890;28;20053;-60
2021/03/15 01:17:54;;;;;;;0.00;0.00;;;15.10;68.60;;;;;;4196538;28;20051;-59
2021/03/15 01:20:16;;;;;;;0.00;0.00;;;15.10;68.60;;;;;;4197806;28;20170;-59
2021/03/15 01:22:38;;;;;;;0.00;0.00;;;15.00;68.60;;;;;;4197682;28;20048;-59
2021/03/15 01:24:59;;;;;;;0.00;0.00;;;15.00;68.70;;;;;;4181318;28;20052;-60
2021/03/15 01:27:21;;;;;;;0.00;0.00;;;15.00;68.70;;;;;;4181227;28;20131;-59
2021/03/15 01:29:42;;;;;;;0.00;0.00;;;15.00;68.70;;;;;;4189502;28;20159;-59
2021/03/15 01:32:03;;;;;;;0.00;0.00;;;15.00;69.80;;;;;;4197178;28;20064;-59
2021/03/15 01:34:24;;;;;;;0.00;0.00;;;15.00;68.90;;;;;;4197573;28;20060;-59
2021/03/15 01:36:56;;;;;;;0.00;0.00;;;15.00;69.00;;;;;;4197504;28;20080;-60
2021/03/15 01:39:18;;;;;;;0.00;0.00;;;15.00;69.00;;;;;;4197174;28;20044;-59
2021/03/15 01:41:38;;;;;;;;;;;15.00;69.00;;;;;;4197775;28;20176;-59
2021/03/15 01:43:59;;;;;;;0.00;0.00;;;15.00;69.20;;;;;;4197497;28;19920;-60
2021/03/15 01:46:20;;;;;;;0.00;0.00;;;14.90;69.00;;;;;;4196320;28;20495;-59
2021/03/15 01:48:41;;;;;;;0.00;0.00;;;14.90;69.10;;;;;;4196628;28;20098;-59
2021/03/15 01:51:01;;;;;;;0.00;0.00;;;14.90;69.10;;;;;;4197300;28;20052;-59
2021/03/15 01:53:23;;;;;;;0.00;0.00;;;14.90;69.20;;;;;;4197046;28;20442;-60
2021/03/15 01:55:45;;;;;;;0.00;0.00;;;14.90;69.20;;;;;;4197243;28;20525;-59
2021/03/15 01:58:06;;;;;;;0.00;0.00;;;14.90;69.30;;;;;;4196938;28;20418;-60
2021/03/15 02:00:27;;;;;;;0.00;0.00;;;14.80;69.30;;;;;;4196821;28;20044;-59
2021/03/15 02:02:53;;;;;;;0.00;0.00;;;14.90;69.40;;;;;;4196416;28;20048;-60
2021/03/15 02:05:14;;;;;;;0.00;0.00;;;14.90;69.50;;;;;;4197062;28;20054;-61
2021/03/15 02:07:35;;;;;;;0.00;0.00;;;14.90;69.50;;;;;;4196851;28;20106;-60
2021/03/15 02:09:56;;;;;;;0.00;0.00;;;14.80;69.50;;;;;;4196816;28;20056;-60
2021/03/15 02:12:28;;;;;;;0.00;0.00;;;14.80;69.40;;;;;;4196832;28;20318;-59
2021/03/15 02:15:00;;;;;;;0.00;0.00;;;14.80;69.50;;;;;;4195864;28;20067;-60
2021/03/15 02:17:28;;;;;;;0.00;0.00;;;14.80;69.60;;;;;;4196882;28;20045;-59
2021/03/15 02:20:31;;;;;;;0.00;0.00;;;14.80;69.60;;;;;;4180333;28;20063;-59
2021/03/15 02:22:58;;;;;;;0.05;0.05;;;14.80;69.60;;;;;;4172044;28;20084;-60
2021/03/15 02:25:52;;;;;;;0.00;0.00;;;14.80;69.60;;;;;;4196719;28;20102;-59
2021/03/15 02:28:47;;;;;;;0.00;0.00;;;14.80;69.90;;;;;;4180118;28;20107;-59
2021/03/15 02:31:31;;;;;;;0.10;0.10;;;14.80;70.00;;;;;;4192874;28;20056;-59
2021/03/15 02:34:23;;;;;;;0.00;0.00;;;14.80;70.00;;;;;;4196539;28;20061;-59
2021/03/15 02:36:49;;;;;;;1.08;1.00;;;14.70;70.00;;;;;;4196510;28;20049;-60
2021/03/15 02:39:14;;;;;;;0.00;0.00;;;14.70;70.10;;;;;;4195746;28;20056;-60
2021/03/15 02:41:37;;;;;;;0.00;0.00;;;14.70;70.10;;;;;;4196067;28;20479;-59
2021/03/15 02:44:03;;;;;;;2.42;1.65;;;14.70;70.10;;;;;;4196455;28;20479;-60
2021/03/15 02:46:27;;;;;;;0.32;0.32;;;14.70;70.10;;;;;;4192927;28;20494;-60
2021/03/15 02:48:51;;;;;;;0.00;0.00;;;14.70;70.30;;;;;;4194657;28;20052;-59
2021/03/15 02:51:14;;;;;;;0.00;0.00;;;14.70;70.30;;;;;;4196151;28;20064;-60
2021/03/15 02:53:39;;;;;;;0.43;0.43;;;14.60;70.20;;;;;;4196188;28;20082;-61
2021/03/15 02:56:04;;;;;;;0.00;0.00;;;14.60;70.20;;;;;;4196075;28;20609;-60
2021/03/15 02:58:26;;;;;;;0.00;0.00;;;14.60;70.30;;;;;;4196182;28;20048;-59
2021/03/15 03:00:47;;;;;;;0.00;0.00;;;14.60;70.40;;;;;;4195038;28;20075;-59
2021/03/15 03:03:10;;;;;;;0.00;0.00;;;14.60;70.40;;;;;;4196140;28;20102;-60
2021/03/15 03:05:33;;;;;;;0.00;0.00;;;14.60;70.50;;;;;;4195562;28;20083;-60
2021/03/15 03:08:08;;;;;;;0.00;0.00;;;14.60;70.70;;;;;;4196080;28;20060;-60
2021/03/15 03:10:31;;;;;;;0.00;0.00;;;14.60;70.80;;;;;;4196147;28;20122;-59
2021/03/15 03:12:52;;;;;;;0.00;0.00;;;14.60;70.80;;;;;;4196058;28;20067;-59
2021/03/15 03:15:15;;;;;;;0.00;0.00;;;14.50;70.70;;;;;;4196075;28;20052;-59
2021/03/15 03:17:38;;;;;;;0.00;0.00;;;14.50;70.80;;;;;;4195949;28;20834;-60
2021/03/15 03:20:00;;;;;;;0.00;0.00;;;14.50;70.90;;;;;;4195961;28;20048;-60
2021/03/15 03:22:22;;;;;;;0.00;0.00;;;14.50;70.90;;;;;;4195720;28;20609;-61
2021/03/15 03:24:45;;;;;;;0.00;0.00;;;14.50;71.00;;;;;;4195401;28;20114;-59
2021/03/15 03:27:08;;;;;;;0.00;0.00;;;14.50;71.00;;;;;;4195765;28;20495;-60
2021/03/15 03:29:30;;;;;;;0.00;0.00;;;14.50;71.10;;;;;;4195742;28;20125;-60
2021/03/15 03:31:53;;;;;;;0.00;0.00;;;14.40;72.00;;;;;;4195723;28;20064;-59
2021/03/15 03:34:14;;;;;;;0.00;0.00;;;14.40;71.10;;;;;;4195633;28;20414;-60
2021/03/15 03:36:36;;;;;;;0.00;0.00;;;14.40;71.10;;;;;;4195655;28;20106;-60
2021/03/15 03:38:57;;;;;;;0.00;0.00;;;14.40;71.20;;;;;;4195017;28;20491;-60
2021/03/15 03:41:18;;;;;;;0.00;0.00;;;14.40;71.20;;;;;;4195633;28;20067;-60
2021/03/15 03:43:49;;;;;;;0.00;0.00;;;14.40;71.30;;;;;;4195727;28;20525;-60
2021/03/15 03:46:11;;;;;;;0.00;0.00;;;14.40;71.40;;;;;;4195399;28;20148;-60
2021/03/15 03:48:35;;;;;;;0.00;0.00;;;14.40;71.40;;;;;;4193955;28;20082;-59
2021/03/15 03:50:56;;;;;;;0.00;0.00;;;14.40;71.50;;;;;;4178956;28;20056;-59
2021/03/15 03:53:25;;;;;;;0.00;0.00;;;14.40;71.50;;;;;;4189867;28;20070;-60
2021/03/15 03:55:51;;;;;;;0.00;0.00;;;14.40;71.50;;;;;;4195549;28;20418;-60
2021/03/15 03:58:15;;;;;;;0.00;0.00;;;14.40;71.60;;;;;;4195458;28;20084;-59
2021/03/15 04:00:39;;;;;;;0.00;0.00;;;14.30;71.50;;;;;;4195335;28;20471;-59
2021/03/15 04:03:07;;;;;;;0.00;0.00;;;14.30;71.60;;;;;;4195360;28;20815;-60
2021/03/15 04:05:30;;;;;;;0.30;0.30;;;14.30;71.60;;;;;;4195244;28;20048;-59
2021/03/15 04:07:56;;;;;;;0.00;0.00;;;14.30;71.70;;;;;;4195234;28;20064;-60
2021/03/15 04:10:17;;;;;;;0.00;0.00;;;14.30;71.70;;;;;;4195442;28;20509;-60
2021/03/15 04:12:43;;;;;;;0.00;0.00;;;14.30;71.70;;;;;;4195430;28;20056;-59
2021/03/15 04:15:05;;;;;;;0.00;0.00;;;14.30;71.70;;;;;;4195513;28;20074;-59
2021/03/15 04:17:32;;;;;;;0.00;0.00;;;14.30;71.80;;;;;;4195221;28;20073;-60
2021/03/15 04:19:58;;;;;;;0.00;0.00;;;14.30;71.80;;;;;;4195402;28;20059;-60
2021/03/15 04:22:23;;;;;;;0.10;0.10;;;14.30;71.80;;;;;;4195051;28;20090;-60
2021/03/15 04:24:44;;;;;;;0.00;0.00;;;14.30;71.90;;;;;;4195100;28;20503;-60
2021/03/15 04:27:06;;;;;;;0.00;0.00;;;14.30;72.00;;;;;;4197964;28;20052;-60
2021/03/15 04:29:29;;;;;;;0.00;0.00;;;14.20;71.90;;;;;;4198436;28;20056;-60
2021/03/15 04:31:51;;;;;;;0.00;0.00;;;14.20;71.90;;;;;;4198409;28;20099;-59
2021/03/15 04:34:14;;;;;;;0.00;0.00;;;14.30;72.00;;;;;;4198236;28;20061;-59
2021/03/15 04:36:35;;;;;;;0.00;0.00;;;14.30;72.00;;;;;;4198138;28;20102;-59
2021/03/15 04:38:58;;;;;;;0.00;0.00;;;14.30;72.00;;;;;;4198259;28;20574;-59
2021/03/15 04:41:19;;;;;;;0.00;0.00;;;14.20;72.10;;;;;;4198340;28;20155;-60
2021/03/15 04:43:40;;;;;;;0.10;0.10;;;14.20;72.10;;;;;;4198234;28;20587;-60
2021/03/15 04:46:01;;;;;;;0.00;0.00;;;14.20;72.10;;;;;;4198147;28;20102;-59
2021/03/15 04:48:25;;;;;;;0.00;0.00;;;14.20;72.20;;;;;;4190538;28;20135;-60
2021/03/15 04:50:50;;;;;;;0.00;0.00;;;14.20;72.20;;;;;;4197921;28;20059;-60
2021/03/15 04:53:14;;;;;;;0.00;0.00;;;14.20;72.20;;;;;;4194390;28;20063;-60
2021/03/15 04:55:35;;;;;;;0.00;0.00;;;14.20;72.40;;;;;;4195445;28;20135;-60
2021/03/15 04:57:58;;;;;;;0.00;0.00;;;14.20;73.30;;;;;;4197747;28;20066;-59
2021/03/15 05:00:20;;;;;;;0.00;0.00;;;14.10;72.40;;;;;;4197918;28;20114;-59
2021/03/15 05:02:43;;;;;;;0.00;0.00;;;14.10;72.40;;;;;;4197964;28;20122;-60
2021/03/15 05:05:07;;;;;;;0.00;0.00;;;14.10;72.40;;;;;;4197949;28;20086;-60
2021/03/15 05:07:31;;;;;;;0.00;0.00;;;14.10;72.40;;;;;;4197244;28;20566;-60
2021/03/15 05:09:53;;;;;;;0.00;0.00;;;14.10;72.40;;;;;;4197950;28;20056;-60
2021/03/15 05:12:14;;;;;;;0.00;0.00;;;14.10;72.50;;;;;;4197750;28;20048;-59
2021/03/15 05:14:36;;;;;;;0.00;0.00;;;14.10;72.50;;;;;;4197728;28;20514;-59
2021/03/15 05:16:57;;;;;;;0.00;0.00;;;14.10;72.60;;;;;;4194087;28;20522;-59
2021/03/15 05:19:19;;;;;;;;;;;14.00;72.60;;;;;;4181671;28;20132;-59
2021/03/15 05:21:42;;;;;;;0.00;0.00;;;14.10;72.80;;;;;;4185755;28;20330;-60
2021/03/15 05:24:04;;;;;;;0.00;0.00;;;14.10;72.80;;;;;;4197660;28;20056;-60
2021/03/15 05:26:27;;;;;;;0.00;0.00;;;14.00;72.80;;;;;;4197304;28;20074;-61
2021/03/15 05:28:48;;;;;;;0.00;0.00;;;14.00;72.80;;;;;;4197552;28;20517;-59
2021/03/15 05:31:13;;;;;;;0.00;0.00;;;14.00;72.80;;;;;;4197439;28;20061;-60
2021/03/15 05:33:36;;;;;;;;;;;14.00;72.80;;;;;;4197362;28;20122;-59
2021/03/15 05:35:58;;;;;;;0.00;0.00;;;14.00;73.80;;;;;;4197445;28;20066;-60
2021/03/15 05:38:19;;;;;;;0.00;0.00;;;14.00;72.80;;;;;;4178437;28;20052;-60
2021/03/15 05:40:44;;;;;;;0.38;0.38;;;14.00;72.90;;;;;;4180848;28;20100;-59
2021/03/15 05:43:32;;;;;;;0.00;0.00;;;14.00;72.90;;;;;;4179848;28;20048;-59
2021/03/15 05:46:21;;;;;;;0.00;0.00;;;14.00;73.00;;;;;;4180728;28;20493;-59
2021/03/15 05:49:08;;;;;;;0.00;0.00;;;14.00;73.00;;;;;;4180626;28;20195;-60
2021/03/15 05:52:05;;;;;;;0.00;0.00;;;14.00;72.90;;;;;;4184160;28;20072;-60
2021/03/15 05:54:59;;;;;;;0.00;0.00;;;13.90;72.90;;;;;;4197038;28;20074;-59
2021/03/15 05:57:48;;;;;;;0.10;0.10;;;13.90;73.00;;;;;;4195841;28;20083;-59
2021/03/15 06:00:22;;;;;;;0.00;0.00;;;13.90;73.00;;;;;;4191064;28;20589;-60
2021/03/15 06:03:13;;;;;;;0.68;0.68;;;13.90;73.10;;;;;;4196938;28;20059;-60
2021/03/15 06:05:36;;;;;;;0.00;0.00;;;13.90;73.90;;;;;;4196953;28;20049;-60
2021/03/15 06:08:03;;;;;;;0.00;0.00;;;13.90;73.10;;;;;;4196633;28;20506;-62
2021/03/15 06:10:41;;;;;;;0.65;0.65;;;13.90;73.80;;;;;;4196276;28;20061;-61
2021/03/15 06:13:05;;;;;;;0.52;0.52;;;14.00;74.50;;;;;;4180213;28;20053;-62
2021/03/15 06:15:33;;;;;;;0.00;0.00;;;14.00;74.30;;;;;;4183466;28;20059;-61
2021/03/15 06:17:55;;;;;;;0.00;0.00;;;14.00;73.90;;;;;;4196467;28;20133;-62
2021/03/15 06:20:17;;;;;;;0.38;0.38;;;14.00;73.60;;;;;;4196190;28;20133;-61
2021/03/15 06:22:38;;;;;;;2.72;2.53;;;14.00;73.40;;;;;;4185545;28;20044;-61
2021/03/15 06:25:00;;;;;;;0.00;0.00;;;14.00;73.30;;;;;;4195147;28;20051;-62
2021/03/15 06:27:22;;;;;;;0.00;0.00;;;14.00;73.10;;;;;;4196480;28;20127;-62
2021/03/15 06:29:44;;;;;;;0.00;0.00;;;13.90;73.00;;;;;;4196400;28;20049;-61
2021/03/15 06:32:08;;;;;;;0.68;0.43;;;13.90;72.90;;;;;;4193642;28;20490;-62
2021/03/15 06:34:30;;;;;;;0.20;0.20;;;13.90;72.80;;;;;;4196274;28;20067;-63
2021/03/15 06:36:51;;;;;;;0.17;0.17;;;13.90;72.60;;;;;;4196332;28;20052;-61
2021/03/15 06:39:13;;;;;;;0.00;0.00;;;13.90;72.50;;;;;;4196332;28;20098;-61
2021/03/15 06:41:34;;;;;;;0.00;0.00;;;13.90;72.50;;;;;;4196545;28;20065;-61
2021/03/15 06:43:55;;;;;;;0.00;0.00;;;13.90;72.40;;;;;;4196549;28;20049;-62
2021/03/15 06:46:17;;;;;;;0.10;0.10;;;13.90;72.30;;;;;;4196781;28;20063;-61
2021/03/15 06:48:38;;;;;;;0.75;0.75;;;13.90;72.30;;;;;;4195549;28;20048;-60
2021/03/15 06:50:58;;;;;;;0.40;0.25;;;13.80;72.10;;;;;;4196293;28;20140;-61
2021/03/15 06:53:20;;;;;;;0.00;0.00;;;13.80;72.00;;;;;;4195773;28;20052;-60
2021/03/15 06:55:47;;;;;;;0.00;0.00;;;13.80;72.10;;;;;;4196279;28;20498;-60
2021/03/15 06:58:23;;;;;;;0.00;0.00;;;13.80;72.00;;;;;;4196274;28;20495;-61
2021/03/15 07:00:45;;;;;;;0.00;0.00;;;13.80;72.00;;;;;;4195935;28;20129;-61
2021/03/15 07:03:07;;;;;;;4.10;1.20;;;13.80;71.90;;;;;;4195822;28;20066;-61
2021/03/15 07:05:29;;;;;;;0.00;0.00;;;13.80;71.80;;;;;;4196147;28;20052;-60
2021/03/15 07:07:53;;;;;;;1.30;1.20;;;13.80;71.80;;;;;;4196156;28;20052;-61
2021/03/15 07:10:18;;;;;;;0.00;0.00;;;13.80;71.70;;;;;;4195659;28;20048;-61
2021/03/15 07:12:40;;;;;;;1.55;0.52;;;13.80;71.60;;;;;;4196111;28;20051;-61
2021/03/15 07:15:05;;;;;;;;;;;13.70;71.50;;;;;;4196002;28;20052;-61
2021/03/15 07:17:28;;;;;;;0.32;0.15;;;13.70;71.50;;;;;;4196092;28;19921;-61
2021/03/15 07:19:49;;;;;;;0.00;0.00;;;13.70;71.50;;;;;;4196061;28;20056;-60
2021/03/15 07:22:18;;;;;;;0.00;0.00;;;13.70;71.50;;;;;;4196246;28;20084;-61
2021/03/15 07:24:39;;;;;;;0.00;0.00;;;13.70;71.50;;;;;;4195346;28;20131;-63
2021/03/15 07:27:00;;;;;;;0.75;0.75;;;13.70;71.30;;;;;;4195367;28;20049;-61
2021/03/15 07:29:27;;;;;;;0.00;0.00;;;13.70;71.30;;;;;;4193340;28;20052;-61
2021/03/15 07:31:49;;;;;;;0.00;0.00;;;13.70;71.30;;;;;;4195436;28;20101;-60
2021/03/15 07:34:20;;;;;;;0.00;0.00;;;13.70;71.20;;;;;;4195365;28;20076;-64
2021/03/15 07:36:53;;;;;;;0.15;0.15;;;13.70;71.20;;;;;;4195518;28;20080;-61
2021/03/15 07:39:15;;;;;;;0.00;0.00;;;13.70;71.00;;;;;;4195626;28;20110;-61
2021/03/15 07:41:38;;;;;;;0.68;0.68;;;13.70;71.10;;;;;;4195140;28;20767;-62
2021/03/15 07:43:59;;;;;;;0.30;0.30;;;13.70;71.10;;;;;;4195575;28;20075;-61
2021/03/15 07:46:22;;;;;;;0.00;0.00;;;13.70;71.20;;;;;;4195403;28;20136;-61
2021/03/15 07:48:43;;;;;;;0.22;0.22;;;13.70;71.20;;;;;;4195416;28;20060;-60
2021/03/15 07:51:08;;;;;;;0.00;0.00;;;13.70;71.90;;;;;;4195362;28;20064;-61
2021/03/15 07:53:43;;;;;;;0.00;0.00;;;13.70;71.80;;;;;;4195424;28;20056;-62
2021/03/15 07:56:06;;;;;;;0.00;0.00;;;13.70;71.50;;;;;;4195554;28;20110;-62
2021/03/15 07:58:29;;;;;;;0.03;0.03;;;13.70;71.30;;;;;;4192934;28;20052;-60
2021/03/15 08:00:50;;;;;;;0.95;0.80;;;13.70;71.30;;;;;;4193373;28;20052;-61
2021/03/15 08:03:12;;;;;;;0.00;0.00;;;13.70;71.30;;;;;;4199024;28;20053;-62
2021/03/15 08:05:34;;;;;;;0.00;0.00;;;13.70;71.30;;;;;;4195647;28;20052;-62
2021/03/15 08:07:55;;;;;;;0.00;0.00;;;13.70;71.30;;;;;;4185900;28;20059;-61
2021/03/15 08:10:17;;;;;;;0.10;0.10;;;13.70;71.30;;;;;;4194715;28;20049;-62
2021/03/15 08:12:39;;;;;;;0.00;0.00;;;13.70;71.30;;;;;;4197565;28;20052;-61
2021/03/15 08:15:03;;;;;;;0.52;0.52;;;13.60;71.20;;;;;;4198017;28;20529;-62
2021/03/15 08:17:25;;;;;;;0.00;0.00;;;13.60;71.30;;;;;;4197569;28;20056;-62
2021/03/15 08:19:47;;;;;;;0.00;0.00;;;13.60;71.30;;;;;;4198538;28;20052;-63
2021/03/15 08:22:12;;;;;;;0.75;0.75;;;13.60;71.30;;;;;;4197646;28;20546;-62
2021/03/15 08:24:38;;;;;;;0.00;0.00;;;13.60;71.20;;;;;;4198308;28;20090;-62
2021/03/15 08:27:02;;;;;;;0.25;0.25;;;13.60;72.10;;;;;;4198757;28;20084;-62
2021/03/15 08:29:23;;;;;;;0.00;0.00;;;13.60;71.20;;;;;;4198695;28;20076;-62
2021/03/15 08:31:47;;;;;;;0.20;0.20;;;13.60;71.20;;;;;;4198610;28;20056;-62
2021/03/15 08:34:11;;;;;;;0.00;0.00;;;13.60;71.20;;;;;;4198561;28;20058;-62
2021/03/15 08:36:38;;;;;;;0.03;0.03;;;13.60;71.20;;;;;;4198671;28;20125;-62
2021/03/15 08:38:59;;;;;;;1.25;0.25;;;13.60;71.20;;;;;;4197520;28;20518;-64
2021/03/15 08:41:23;;;;;;;0.65;0.65;;;13.60;71.20;;;;;;4198498;28;20056;-62
2021/03/15 08:43:46;;;;;;;1.00;1.00;;;13.60;71.20;;;;;;4198411;28;20057;-60
2021/03/15 08:46:13;;;;;;;0.00;0.00;;;13.60;71.30;;;;;;4198465;28;20052;-62
2021/03/15 08:48:52;;;;;;;0.00;0.00;;;13.50;71.30;;;;;;4198431;28;20048;-62
2021/03/15 08:51:14;;;;;;;0.00;0.00;;;13.50;71.30;;;;;;4198348;28;20060;-62
2021/03/15 08:53:50;;;;;;;0.00;0.00;;;13.50;71.40;;;;;;4198147;28;20804;-61
2021/03/15 08:56:13;;;;;;;1.65;1.00;;;13.60;71.30;;;;;;4181832;28;20053;-63
2021/03/15 08:58:37;;;;;;;0.00;0.00;;;13.50;71.20;;;;;;4181750;28;20523;-62
2021/03/15 09:00:59;;;;;;;0.28;0.28;;;13.50;71.30;;;;;;4181618;28;20072;-62
2021/03/15 09:03:46;;;;;;;0.38;0.38;;;13.50;71.30;;;;;;4181517;28;20510;-62
2021/03/15 09:06:07;;;;;;;0.00;0.00;;;13.50;71.40;;;;;;4181552;28;20565;-62
2021/03/15 09:08:59;;;;;;;0.82;0.80;;;13.50;71.40;;;;;;4181484;28;20048;-62
2021/03/15 09:11:49;;;;;;;0.00;0.00;;;13.50;72.20;;;;;;4181148;28;20061;-61
2021/03/15 09:14:37;;;;;;;11.73;1.35;;;13.50;71.40;;;;;;4181457;28;20107;-62
2021/03/15 09:17:20;;;;;;;0.00;0.00;;;13.50;71.30;;;;;;4181454;28;20168;-62
2021/03/15 09:19:41;;;;;;;0.00;0.00;;;13.50;71.30;;;;;;4181467;28;20084;-62
2021/03/15 09:22:03;;;;;;;;;;;13.50;71.30;;;;;;4181752;28;20431;-62
2021/03/15 09:24:42;;;;;;;0.10;0.10;;;13.50;72.30;;;;;;4188799;28;20378;-62
2021/03/15 09:27:04;;;;;;;0.00;0.00;;;13.50;71.40;;;;;;4197707;28;20441;-61
2021/03/15 09:29:25;;;;;;;1.05;1.05;;;13.50;71.50;;;;;;4197931;28;20056;-62
2021/03/15 09:32:00;;;;;;;0.00;0.00;;;13.50;71.50;;;;;;4197765;28;20060;-62
2021/03/15 09:34:21;;;;;;;1.08;0.98;;;13.50;71.40;;;;;;4197501;28;20572;-62
2021/03/15 09:36:42;;;;;;;;;;;13.50;71.30;;;;;;4198451;28;20052;-62
2021/03/15 09:39:06;;;;;;;0.00;0.00;;;13.50;71.40;;;;;;4197760;28;19930;-62
2021/03/15 09:41:28;;;;;;;0.25;0.25;;;13.50;71.20;;;;;;4197657;28;20506;-62
2021/03/15 09:43:50;;;;;;;0.00;0.00;;;13.50;71.20;;;;;;4197196;28;20127;-62
2021/03/15 09:46:13;;;;;;;0.00;0.00;;;13.50;71.20;;;;;;4197639;28;20060;-62
2021/03/15 09:48:36;;;;;;;0.05;0.05;;;13.50;71.10;;;;;;4197445;28;20522;-62
2021/03/15 09:51:01;;;;;;;0.00;0.00;;;13.50;71.00;;;;;;4196393;28;20059;-62
2021/03/15 09:53:44;;;;;;;0.00;0.00;;;13.60;71.00;;;;;;4197459;28;20077;-62
2021/03/15 09:56:09;;;;;;;0.00;0.00;;;13.60;70.80;;;;;;4196372;28;20056;-62
2021/03/15 09:58:36;;;;;;;0.10;0.10;;;13.60;70.70;;;;;;4197318;28;20052;-62
2021/03/15 10:01:09;;;;;;;0.00;0.00;;;13.60;70.70;;;;;;4197266;28;20056;-62
2021/03/15 10:03:52;;;;;;;0.05;0.05;;;13.60;70.70;;;;;;4195847;28;20049;-62
2021/03/15 10:06:27;;;;;;;0.00;0.00;;;13.60;70.70;;;;;;4197262;28;20045;-62
2021/03/15 10:08:57;;;;;;;0.00;0.00;;;13.60;70.60;;;;;;4197213;28;20053;-62
2021/03/15 10:11:42;;;;;;;8.20;0.85;;;13.60;70.70;;;;;;4197155;28;20080;-62
2021/03/15 10:14:39;;;;;;;0.00;0.00;;;13.70;70.70;;;;;;4162145;28;20060;-62
2021/03/15 10:17:22;;;;;;;0.00;0.00;;;13.60;71.50;;;;;;4196983;28;20049;-62
2021/03/15 10:20:08;;;;;;;0.00;0.00;;;13.70;70.60;;;;;;4197031;28;20056;-62
2021/03/15 10:22:29;;;;;;;0.45;0.45;;;13.70;70.60;;;;;;4193289;28;20056;-62
2021/03/15 10:24:55;;;;;;;0.50;0.50;;;13.70;70.40;;;;;;4178806;28;20057;-62
2021/03/15 10:27:23;;;;;;;0.00;0.00;;;13.70;70.40;;;;;;4179303;28;20531;-62
2021/03/15 10:29:53;;;;;;;13.68;1.02;;;13.70;70.40;;;;;;4195107;28;20527;-62
2021/03/15 10:32:19;;;;;;;0.73;0.73;;;13.70;70.40;;;;;;4189784;28;20063;-61
2021/03/15 10:34:40;;;;;;;0.22;0.22;;;13.70;70.40;;;;;;4192568;28;20060;-62
2021/03/15 10:37:11;;;;;;;0.03;0.03;;;13.70;70.10;;;;;;4192781;28;20512;-62
2021/03/15 10:39:48;;;;;;;0.00;0.00;;;13.70;70.10;;;;;;4182851;28;20048;-64
2021/03/15 10:42:10;;;;;;;0.00;0.00;;;13.70;70.10;;;;;;4190306;28;20073;-63
2021/03/15 10:44:35;;;;;;;0.70;0.70;;;13.70;70.00;;;;;;4192915;28;20064;-61
2021/03/15 10:47:03;;;;;;;1.02;0.98;;;13.70;69.80;;;;;;4195477;28;20060;-62
2021/03/15 10:49:32;;;;;;;0.10;0.10;;;13.70;69.90;;;;;;4194843;28;20102;-60
2021/03/15 10:52:30;;;;;;;0.00;0.00;;;13.70;70.10;;;;;;4195249;28;20415;-64
2021/03/15 10:54:53;;;;;;;0.00;0.00;;;13.70;70.60;;;;;;4195702;28;20048;-66
2021/03/15 10:57:18;;;;;;;0.00;0.00;;;13.80;70.20;;;;;;4193262;28;20053;-65
2021/03/15 10:59:43;;;;;;;0.00;0.00;;;13.80;69.80;;;;;;4194048;28;20063;-65
2021/03/15 11:02:08;;;;;;;0.00;0.00;;;13.80;69.70;;;;;;4195130;28;20055;-65
2021/03/15 11:04:41;;;;;;;0.00;0.00;;;13.80;69.50;;;;;;4192466;28;20056;-64
2021/03/15 11:07:20;;;;;;;0.00;0.00;;;13.80;69.30;;;;;;4190305;28;20057;-65
2021/03/15 11:10:05;;;;;;;0.08;0.08;;;13.80;69.40;;;;;;4190964;28;20064;-65
2021/03/15 11:12:39;;;;;;;0.00;0.00;;;13.80;69.30;;;;;;4195127;28;20063;-66
2021/03/15 11:15:20;;;;;;;0.15;0.15;;;13.80;69.20;;;;;;4194542;28;20055;-64
2021/03/15 11:18:05;;;;;;;0.00;0.00;;;13.80;69.30;;;;;;4194878;28;20494;-65
2021/03/15 11:20:36;;;;;;;0.85;0.85;;;13.80;69.20;;;;;;4194305;28;20135;-65
2021/03/15 11:22:58;;;;;;;0.00;0.00;;;13.80;69.40;;;;;;4194384;28;20121;-63
2021/03/15 11:25:23;;;;;;;0.08;0.08;;;13.80;69.30;;;;;;4185687;28;20127;-65
2021/03/15 11:27:55;;;;;;;0.00;0.00;;;13.80;69.20;;;;;;4193092;28;20048;-64
2021/03/15 11:30:21;;;;;;;0.00;0.00;;;13.80;69.20;;;;;;4195568;28;20052;-63
2021/03/15 11:32:48;;;;;;;0.00;0.00;;;13.80;69.30;;;;;;4194311;28;20056;-64
2021/03/15 11:35:21;;;;;;;0.00;0.00;;;13.80;69.40;;;;;;4194318;28;20503;-64
2021/03/15 11:38:00;;;;;;;0.10;0.10;;;13.80;69.40;;;;;;4188338;28;20055;-64
2021/03/15 11:40:40;;;;;;;0.25;0.25;;;13.80;69.60;;;;;;4193670;28;20049;-64
2021/03/15 11:43:03;;;;;;;0.32;0.32;;;13.80;69.60;;;;;;4191640;28;20053;-63
2021/03/15 11:45:25;;;;;;;0.00;0.00;;;13.80;69.50;;;;;;4179273;28;20049;-64
2021/03/15 11:47:47;;;;;;;0.00;0.00;;;13.80;69.50;;;;;;4179840;28;20071;-63
2021/03/15 11:50:22;;;;;;;0.43;0.20;;;13.80;69.50;;;;;;4177992;28;20136;-64
2021/03/15 11:52:52;;;;;;;0.10;0.10;;;13.80;69.50;;;;;;4190996;28;20143;-64
2021/03/15 11:55:17;;;;;;;0.00;0.00;;;13.80;69.40;;;;;;4194349;28;20045;-66
2021/03/15 11:57:39;;;;;;;0.00;0.00;;;13.80;69.40;;;;;;4193652;28;20090;-60
2021/03/15 12:00:01;;;;;;;0.93;0.93;;;13.80;69.40;;;;;;4194545;28;20049;-61
2021/03/15 12:02:38;;;;;;;0.00;0.00;;;13.80;69.50;;;;;;4186218;28;20706;-59
2021/03/15 12:05:02;;;;;;;0.43;0.43;;;13.80;69.40;;;;;;4194277;28;20056;-60
2021/03/15 12:07:24;;;;;;;0.00;0.00;;;13.80;69.40;;;;;;4193812;28;20044;-60
2021/03/15 12:09:51;;;;;;;0.10;0.10;;;13.80;69.50;;;;;;4195511;28;20461;-60
2021/03/15 12:12:13;;;;;;;3.10;0.80;;;13.80;69.60;;;;;;4194740;28;20052;-61
2021/03/15 12:14:49;;;;;;;0.00;0.00;;;13.80;69.60;;;;;;4194320;28;20053;-61
2021/03/15 12:17:11;;;;;;;0.10;0.10;;;13.80;69.50;;;;;;4193986;28;20059;-60
2021/03/15 12:19:33;;;;;;;0.00;0.00;;;13.80;69.50;;;;;;4188553;28;20947;-59
2021/03/15 12:22:01;;;;;;;1.48;0.85;;;13.80;69.50;;;;;;4189542;28;20080;-62
2021/03/15 12:24:43;;;;;;;0.10;0.10;;;13.90;70.40;;;;;;4193494;28;20052;-61
2021/03/15 12:27:04;;;;;;;0.00;0.00;;;13.80;69.40;;;;;;4193849;28;20407;-60
2021/03/15 12:29:27;;;;;;;0.00;0.00;;;13.80;69.40;;;;;;4177662;28;20103;-60
2021/03/15 12:31:49;;;;;;;;;;;13.80;69.40;;;;;;4192408;28;20503;-61
2021/03/15 12:34:13;;;;;;;0.00;0.00;;;13.80;69.50;;;;;;4193693;28;19977;-62
2021/03/15 12:36:34;;;;;;;0.00;0.00;;;13.80;69.40;;;;;;4193272;28;20048;-61
2021/03/15 12:38:56;;;;;;;0.00;0.00;;;13.90;69.60;;;;;;4193931;28;20053;-60
2021/03/15 12:41:19;;;;;;;0.00;0.00;;;13.90;69.70;;;;;;4191366;28;20068;-60
2021/03/15 12:43:40;;;;;;;0.00;0.00;;;13.80;69.60;;;;;;4192544;28;20060;-60